Time;durP1;ratioP1;P1;durP2;ratioP2;P2;SDS_P1;SDS_P2;PMS_P1;PMS_P2;Temp;Humidity;BMP_temperature;BMP_pressure;BME280_temperature;BME280_humidity;BME280_pressure;Samples;Min_cycle;Max_cycle;Signal;HPM_P1;HPM_P2
2022/05/04 00:01:06;;;;;;;8.65;2.70;;;7.80;99.90;;;;;;5011025;28;20033;-77
2022/05/04 00:03:35;;;;;;;5.85;2.40;;;7.80;99.90;;;;;;5009986;28;20032;-77
2022/05/04 00:06:00;;;;;;;7.80;2.88;;;7.80;99.90;;;;;;5011061;28;20018;-77
2022/05/04 00:08:26;;;;;;;5.68;2.30;;;7.80;99.90;;;;;;5011032;28;20473;-77
2022/05/04 00:10:51;;;;;;;6.00;2.55;;;7.80;99.90;;;;;;5011073;28;20037;-78
2022/05/04 00:13:17;;;;;;;7.90;2.38;;;7.80;99.90;;;;;;5010869;28;20022;-78
2022/05/04 00:15:43;;;;;;;8.70;3.25;;;7.80;99.90;;;;;;5010773;28;20018;-77
2022/05/04 00:18:08;;;;;;;5.20;2.58;;;7.80;99.90;;;;;;5011024;28;20054;-78
2022/05/04 00:20:34;;;;;;;8.90;2.92;;;7.80;99.90;;;;;;5004421;28;20057;-78
2022/05/04 00:22:59;;;;;;;6.93;2.50;;;7.80;99.90;;;;;;5011112;28;20536;-78
2022/05/04 00:25:25;;;;;;;5.22;2.25;;;7.80;99.90;;;;;;5010601;28;20026;-78
2022/05/04 00:27:51;;;;;;;6.57;2.22;;;7.80;99.90;;;;;;5010984;28;20022;-77
2022/05/04 00:30:16;;;;;;;9.10;2.63;;;7.80;99.90;;;;;;5009401;28;20361;-78
2022/05/04 00:32:44;;;;;;;7.53;2.30;;;7.80;99.90;;;;;;5010961;28;20318;-77
2022/05/04 00:35:09;;;;;;;7.32;2.63;;;7.70;99.90;;;;;;5010913;28;20135;-78
2022/05/04 00:37:35;;;;;;;8.20;3.42;;;7.70;99.90;;;;;;5010665;28;20021;-78
2022/05/04 00:40:00;;;;;;;6.50;2.38;;;7.70;99.90;;;;;;5010579;28;20384;-77
2022/05/04 00:42:26;;;;;;;8.98;2.50;;;7.70;99.90;;;;;;5009586;28;20146;-77
2022/05/04 00:44:51;;;;;;;9.23;2.60;;;7.70;99.90;;;;;;5025802;28;20022;-78
2022/05/04 00:47:18;;;;;;;5.65;2.58;;;7.70;99.90;;;;;;5010855;28;20024;-78
2022/05/04 00:49:46;;;;;;;5.70;2.60;;;7.70;99.90;;;;;;5010389;28;20022;-78
2022/05/04 00:52:13;;;;;;;7.82;2.78;;;7.70;99.90;;;;;;5010802;28;20375;-78
2022/05/04 00:54:44;;;;;;;9.30;2.58;;;7.70;99.90;;;;;;5010800;28;20097;-78
2022/05/04 00:57:11;;;;;;;6.13;2.72;;;7.70;99.90;;;;;;5011056;28;20026;-78
2022/05/04 00:59:38;;;;;;;10.88;2.28;;;7.60;99.90;;;;;;5010613;28;20389;-78
2022/05/04 01:02:04;;;;;;;4.78;2.38;;;7.60;99.90;;;;;;5010481;28;20030;-78
2022/05/04 01:04:30;;;;;;;7.97;2.65;;;7.60;99.90;;;;;;5010626;28;20018;-78
2022/05/04 01:06:56;;;;;;;9.40;2.60;;;7.60;99.90;;;;;;5010752;28;20372;-78
2022/05/04 01:09:21;;;;;;;6.40;2.08;;;7.60;99.90;;;;;;5010530;28;20022;-78
2022/05/04 01:11:47;;;;;;;7.63;2.45;;;7.60;99.90;;;;;;5009353;28;20115;-78
2022/05/04 01:14:14;;;;;;;12.73;2.95;;;7.60;99.90;;;;;;5069258;22;20050;-78
2022/05/04 01:16:48;;;;;;;7.25;2.75;;;7.60;99.90;;;;;;5039177;28;20029;-78
2022/05/04 01:19:14;;;;;;;12.40;2.90;;;7.60;99.90;;;;;;5041870;28;20017;-78
2022/05/04 01:21:40;;;;;;;8.30;2.80;;;7.60;99.90;;;;;;5043563;28;20029;-78
2022/05/04 01:24:07;;;;;;;9.60;3.30;;;7.60;99.90;;;;;;5034903;28;20045;-77
2022/05/04 01:26:32;;;;;;;8.30;2.45;;;7.50;99.90;;;;;;5031421;28;20029;-78
2022/05/04 01:28:58;;;;;;;7.03;3.17;;;7.50;99.90;;;;;;5037635;28;20029;-78
2022/05/04 01:31:24;;;;;;;6.93;2.60;;;7.50;99.90;;;;;;5045860;28;20373;-78
2022/05/04 01:33:50;;;;;;;8.23;2.42;;;7.50;99.90;;;;;;5046935;28;20055;-78
2022/05/04 01:36:16;;;;;;;6.80;2.47;;;7.50;99.90;;;;;;5046946;28;20017;-78
2022/05/04 01:38:42;;;;;;;8.05;3.17;;;7.50;99.90;;;;;;5046999;28;20037;-78
2022/05/04 01:42:02;;;;;;;5.47;2.35;;;7.50;99.90;;;;;;5045985;28;20056;-78
2022/05/04 01:43:53;;;;;;;8.90;2.65;;;7.50;99.90;;;;;;5045318;28;20036;-78
2022/05/04 01:46:19;;;;;;;4.43;2.03;;;7.40;99.90;;;;;;5046595;28;20025;-78
2022/05/04 01:48:45;;;;;;;8.63;2.30;;;7.50;99.90;;;;;;5047170;28;20045;-78
2022/05/04 01:51:10;;;;;;;8.50;2.25;;;7.50;99.90;;;;;;5046627;28;20033;-77
2022/05/04 01:53:36;;;;;;;12.10;3.38;;;7.50;99.90;;;;;;5045315;28;20057;-77
2022/05/04 01:56:06;;;;;;;8.98;2.65;;;7.50;99.90;;;;;;5044648;28;20060;-78
2022/05/04 01:58:32;;;;;;;5.95;2.42;;;7.40;99.90;;;;;;5044495;28;20032;-77
2022/05/04 02:00:58;;;;;;;4.13;2.00;;;7.40;99.90;;;;;;5043679;28;20033;-77
2022/05/04 02:03:24;;;;;;;6.10;2.60;;;7.40;99.90;;;;;;5043880;28;20029;-78
2022/05/04 02:05:49;;;;;;;7.90;2.55;;;7.40;99.90;;;;;;5044854;28;20037;-77
2022/05/04 02:08:15;;;;;;;8.57;3.00;;;7.40;99.90;;;;;;5045999;28;20459;-77
2022/05/04 02:10:40;;;;;;;5.38;2.30;;;7.40;1.00;;;;;;5044730;28;20480;-78
2022/05/04 02:13:06;;;;;;;4.47;2.20;;;7.40;99.90;;;;;;5042676;28;20054;-77
2022/05/04 02:15:31;;;;;;;4.00;2.33;;;7.40;99.90;;;;;;5042104;28;20108;-77
2022/05/04 02:17:57;;;;;;;11.98;2.65;;;7.30;99.90;;;;;;5042094;28;20017;-78
2022/05/04 02:20:22;;;;;;;7.40;2.63;;;7.40;99.90;;;;;;5043668;28;20033;-77
2022/05/04 02:22:48;;;;;;;7.22;2.38;;;7.40;99.90;;;;;;5046998;28;20029;-77
2022/05/04 02:25:13;;;;;;;5.68;2.50;;;7.40;99.90;;;;;;5050595;28;20100;-77
2022/05/04 02:27:39;;;;;;;7.85;2.85;;;7.40;99.90;;;;;;5050314;28;20094;-78
2022/05/04 02:30:05;;;;;;;9.27;2.60;;;7.40;99.90;;;;;;5051115;28;20032;-77
2022/05/04 02:32:31;;;;;;;7.43;2.30;;;7.40;1.00;;;;;;5050025;28;20510;-78
2022/05/04 02:37:55;;;;;;;5.95;2.55;;;7.40;99.90;;;;;;5051278;28;20031;-78
2022/05/04 02:40:21;;;;;;;5.85;2.30;;;7.40;99.90;;;;;;5049129;28;20027;-78
2022/05/04 02:42:47;;;;;;;6.95;2.30;;;7.40;99.90;;;;;;5048799;28;20072;-78
2022/05/04 02:45:14;;;;;;;4.47;2.25;;;7.40;99.90;;;;;;5049277;28;20156;-77
2022/05/04 02:47:40;;;;;;;5.85;2.40;;;7.40;1.00;;;;;;5049240;28;20033;-78
2022/05/04 02:50:06;;;;;;;6.78;2.80;;;7.40;1.00;;;;;;5048703;28;20036;-77
2022/05/04 02:52:33;;;;;;;11.30;2.60;;;7.40;99.90;;;;;;5046752;28;20033;-78
2022/05/04 02:54:58;;;;;;;8.00;2.35;;;7.30;99.90;;;;;;5045680;28;20048;-78
2022/05/04 02:57:24;;;;;;;8.93;2.58;;;7.30;99.90;;;;;;5042437;28;20025;-77
2022/05/04 02:59:49;;;;;;;4.90;2.28;;;7.30;1.00;;;;;;5042398;28;20438;-78
2022/05/04 03:02:27;;;;;;;7.68;2.38;;;7.30;99.90;;;;;;5043125;28;20060;-77
2022/05/04 03:04:56;;;;;;;7.20;2.83;;;7.30;99.90;;;;;;5043450;28;20030;-78
2022/05/04 03:07:22;;;;;;;7.67;2.47;;;7.30;99.90;;;;;;5043385;28;20056;-77
2022/05/04 03:09:47;;;;;;;6.45;2.13;;;7.30;99.90;;;;;;5043640;28;20270;-78
2022/05/04 03:12:13;;;;;;;9.05;3.00;;;7.30;99.90;;;;;;5042959;28;20017;-78
2022/05/04 03:14:38;;;;;;;6.80;2.33;;;7.30;99.90;;;;;;5041072;28;20050;-77
2022/05/04 03:17:04;;;;;;;6.10;2.10;;;7.30;99.90;;;;;;5048766;28;20021;-78
2022/05/04 03:19:30;;;;;;;4.30;2.00;;;7.30;99.90;;;;;;5039909;28;20029;-77
2022/05/04 03:21:55;;;;;;;7.93;2.40;;;7.30;99.90;;;;;;5042318;28;20537;-77
2022/05/04 03:24:21;;;;;;;6.38;2.38;;;7.20;99.90;;;;;;5041733;28;20025;-77
2022/05/04 03:26:47;;;;;;;7.60;2.53;;;7.20;99.90;;;;;;5042993;28;20044;-78
2022/05/04 03:29:13;;;;;;;7.03;2.60;;;7.20;99.90;;;;;;5043245;28;20075;-77
2022/05/04 03:31:39;;;;;;;6.88;2.67;;;7.20;99.90;;;;;;5042557;28;20493;-78
2022/05/04 03:34:05;;;;;;;8.13;2.60;;;7.20;99.90;;;;;;5043349;28;20518;-77
2022/05/04 03:36:32;;;;;;;7.38;2.45;;;7.20;99.90;;;;;;5042967;28;20029;-78
2022/05/04 03:38:59;;;;;;;2.83;1.83;;;7.20;99.90;;;;;;5042743;28;20029;-78
2022/05/04 03:41:24;;;;;;;6.57;2.45;;;7.20;1.00;;;;;;5041333;28;20444;-78
2022/05/04 03:43:50;;;;;;;3.70;2.03;;;7.20;1.00;;;;;;5041676;28;20602;-78
2022/05/04 03:46:20;;;;;;;6.63;2.53;;;7.20;1.00;;;;;;5044885;28;20041;-77
2022/05/04 03:48:48;;;;;;;5.47;2.10;;;7.20;1.00;;;;;;5044541;28;20060;-77
2022/05/04 03:51:16;;;;;;;7.80;2.40;;;7.20;99.90;;;;;;5044423;28;20052;-77
2022/05/04 03:53:42;;;;;;;3.90;2.38;;;7.20;1.00;;;;;;5043356;28;20018;-77
2022/05/04 03:56:08;;;;;;;6.28;2.25;;;7.20;1.00;;;;;;5043626;28;20018;-77
2022/05/04 03:58:34;;;;;;;5.70;2.20;;;7.20;99.90;;;;;;5043220;28;20435;-77
2022/05/04 04:00:59;;;;;;;7.05;2.22;;;7.20;99.90;;;;;;5044280;28;20067;-77
2022/05/04 04:03:25;;;;;;;6.80;1.98;;;7.20;99.90;;;;;;5044562;28;20508;-77
2022/05/04 04:05:51;;;;;;;4.88;2.17;;;7.20;99.90;;;;;;5044005;28;20337;-77
2022/05/04 04:08:16;;;;;;;5.85;1.98;;;7.20;99.90;;;;;;5044344;28;20052;-77
2022/05/04 04:10:42;;;;;;;11.13;2.28;;;7.20;99.90;;;;;;5043127;28;20511;-77
2022/05/04 04:13:08;;;;;;;6.30;2.97;;;7.30;99.90;;;;;;5043138;28;20049;-77
2022/05/04 04:15:34;;;;;;;4.05;2.03;;;7.30;99.90;;;;;;5041166;28;20026;-77
2022/05/04 04:17:59;;;;;;;9.10;2.53;;;7.30;99.90;;;;;;5041353;28;20519;-78
2022/05/04 04:23:10;;;;;;;3.90;1.83;;;7.30;99.90;;;;;;5043281;28;20091;-77
2022/05/04 04:25:36;;;;;;;4.93;2.40;;;7.40;99.90;;;;;;5042564;28;20017;-77
2022/05/04 04:28:02;;;;;;;5.45;1.90;;;7.40;99.90;;;;;;5043484;28;20029;-77
2022/05/04 04:30:27;;;;;;;7.18;2.25;;;7.40;99.90;;;;;;5044227;28;20085;-77
2022/05/04 04:32:53;;;;;;;8.93;2.08;;;7.50;99.90;;;;;;5045046;28;20017;-77
2022/05/04 04:35:18;;;;;;;4.30;1.92;;;7.60;99.90;;;;;;5042796;28;20089;-77
2022/05/04 04:37:44;;;;;;;4.78;2.00;;;7.60;99.90;;;;;;5043742;28;20046;-77
2022/05/04 04:40:09;;;;;;;8.73;2.00;;;7.70;99.90;;;;;;5043018;28;20033;-77
2022/05/04 04:42:35;;;;;;;4.47;1.98;;;7.70;99.90;;;;;;5043361;28;20022;-77
2022/05/04 04:45:01;;;;;;;5.18;2.20;;;7.70;99.90;;;;;;5044470;28;20066;-77
2022/05/04 04:47:26;;;;;;;5.43;2.40;;;7.70;99.90;;;;;;5045319;28;20081;-77
2022/05/04 04:49:56;;;;;;;6.63;2.35;;;7.80;99.90;;;;;;5045916;28;20043;-77
2022/05/04 04:52:21;;;;;;;9.60;2.50;;;7.90;99.90;;;;;;5044500;28;20397;-77
2022/05/04 04:54:47;;;;;;;6.13;2.10;;;7.90;99.90;;;;;;5043322;28;20266;-78
2022/05/04 04:57:12;;;;;;;8.65;2.95;;;7.90;99.90;;;;;;5043345;28;20075;-78
2022/05/04 04:59:38;;;;;;;6.45;2.22;;;8.00;99.90;;;;;;5042835;28;20029;-77
2022/05/04 05:02:04;;;;;;;7.93;2.58;;;8.00;99.90;;;;;;5044986;28;20344;-78
2022/05/04 05:04:29;;;;;;;6.20;2.13;;;8.10;99.90;;;;;;5047516;28;20104;-78
2022/05/04 05:06:55;;;;;;;5.35;2.30;;;8.20;99.90;;;;;;5047666;28;20026;-77
2022/05/04 05:09:20;;;;;;;6.40;2.22;;;8.30;99.90;;;;;;5047750;28;20097;-78
2022/05/04 05:11:46;;;;;;;3.80;2.00;;;8.40;99.90;;;;;;5047896;28;20104;-78
2022/05/04 05:16:56;;;;;;;5.57;2.10;;;8.40;99.90;;;;;;5044545;28;20041;-78
2022/05/04 05:19:22;;;;;;;6.38;2.08;;;8.50;99.90;;;;;;5045318;28;20108;-78
2022/05/04 05:21:48;;;;;;;5.38;2.17;;;8.60;99.90;;;;;;5046581;28;20064;-78
2022/05/04 05:24:14;;;;;;;8.85;2.50;;;8.70;99.90;;;;;;5046506;28;20124;-77
2022/05/04 05:26:39;;;;;;;7.72;2.50;;;8.70;99.90;;;;;;5045519;28;20014;-78
2022/05/04 05:29:05;;;;;;;7.65;2.35;;;8.80;99.90;;;;;;5046451;28;20030;-78
2022/05/04 05:31:30;;;;;;;8.13;2.65;;;8.80;99.90;;;;;;5052794;28;20044;-78
2022/05/04 05:33:56;;;;;;;6.13;2.20;;;8.80;99.90;;;;;;5047595;28;20040;-77
2022/05/04 05:36:21;;;;;;;5.55;2.65;;;8.90;99.90;;;;;;5047820;28;20083;-78
2022/05/04 05:38:47;;;;;;;8.88;2.05;;;8.90;99.90;;;;;;5047774;28;20051;-78
2022/05/04 05:41:12;;;;;;;6.32;2.10;;;9.00;99.90;;;;;;5046724;28;20077;-78
2022/05/04 05:43:38;;;;;;;6.00;2.20;;;8.90;99.90;;;;;;5046701;28;20036;-78
2022/05/04 05:46:03;;;;;;;7.18;2.63;;;9.00;99.90;;;;;;5049266;28;20045;-78
2022/05/04 05:48:29;;;;;;;7.95;2.53;;;9.10;99.90;;;;;;5050136;28;20049;-77
2022/05/04 05:50:54;;;;;;;7.47;2.47;;;9.10;99.90;;;;;;5050098;28;20055;-78
2022/05/04 05:53:22;;;;;;;3.53;1.90;;;9.20;99.90;;;;;;5049055;28;20217;-78
2022/05/04 05:55:48;;;;;;;6.57;2.65;;;9.40;99.90;;;;;;5046402;28;20017;-78
2022/05/04 05:58:14;;;;;;;9.10;2.53;;;9.60;99.90;;;;;;5047086;28;20029;-78
2022/05/04 06:00:40;;;;;;;6.18;1.90;;;9.70;99.90;;;;;;5046789;28;20069;-78
2022/05/04 06:03:05;;;;;;;4.65;2.30;;;9.90;99.90;;;;;;5047043;28;20448;-78
2022/05/04 06:05:31;;;;;;;4.75;2.22;;;10.00;99.90;;;;;;5047309;28;20061;-78
2022/05/04 06:07:56;;;;;;;4.80;2.40;;;10.00;99.90;;;;;;5046922;28;20476;-78
2022/05/04 06:10:22;;;;;;;6.18;2.25;;;10.10;99.90;;;;;;5046891;28;20531;-78
2022/05/04 06:12:47;;;;;;;7.57;2.13;;;9.80;99.90;;;;;;5047032;28;20362;-77
2022/05/04 06:15:16;;;;;;;6.88;2.47;;;9.90;99.90;;;;;;5045746;28;20519;-77
2022/05/04 06:17:44;;;;;;;7.78;2.53;;;9.80;99.90;;;;;;5045961;28;20025;-78
2022/05/04 06:20:09;;;;;;;8.23;3.05;;;10.30;99.90;;;;;;5047621;28;20390;-77
2022/05/04 06:22:35;;;;;;;4.53;1.67;;;10.60;99.90;;;;;;5048250;28;20469;-78
2022/05/04 06:25:01;;;;;;;6.45;1.90;;;10.50;99.90;;;;;;5049008;28;20021;-78
2022/05/04 06:27:29;;;;;;;4.47;2.35;;;10.60;99.90;;;;;;5049525;28;20040;-78
2022/05/04 06:35:22;;;;;;;7.38;2.25;;;10.40;99.90;;;;;;5048974;28;20089;-78
2022/05/04 06:37:48;;;;;;;7.97;2.25;;;10.80;99.90;;;;;;5048959;28;20034;-78
2022/05/04 06:40:14;;;;;;;7.25;2.40;;;11.10;99.90;;;;;;5048288;28;20036;-78
2022/05/04 06:42:39;;;;;;;9.10;2.30;;;11.40;99.90;;;;;;5046515;28;20027;-77
2022/05/04 06:45:06;;;;;;;4.45;2.08;;;11.90;99.90;;;;;;5048152;28;20026;-78
2022/05/04 06:47:31;;;;;;;6.40;2.00;;;12.20;99.90;;;;;;5051021;28;20085;-78
2022/05/04 06:49:57;;;;;;;7.03;2.60;;;12.30;99.90;;;;;;5051360;28;20048;-78
2022/05/04 06:52:26;;;;;;;8.48;2.25;;;12.40;99.90;;;;;;5050174;28;20030;-78
2022/05/04 06:54:52;;;;;;;5.40;1.60;;;12.10;99.90;;;;;;5048494;28;20041;-78
2022/05/04 06:57:17;;;;;;;4.85;2.03;;;12.10;99.90;;;;;;5048520;28;20077;-78
2022/05/04 06:59:43;;;;;;;4.28;2.33;;;12.20;99.90;;;;;;5046660;28;20029;-79
2022/05/04 07:02:08;;;;;;;4.90;2.22;;;12.40;99.90;;;;;;5048310;28;20040;-78
2022/05/04 07:04:34;;;;;;;6.93;2.50;;;12.80;99.90;;;;;;5046417;28;20029;-78
2022/05/04 07:07:00;;;;;;;7.25;2.08;;;13.20;99.90;;;;;;5048822;28;20029;-77
2022/05/04 07:09:26;;;;;;;4.88;2.65;;;13.20;99.90;;;;;;5046281;28;20029;-78
2022/05/04 07:11:51;;;;;;;4.15;2.10;;;13.50;99.90;;;;;;5046910;28;20029;-78
2022/05/04 07:14:17;;;;;;;5.75;2.13;;;13.20;99.90;;;;;;5044687;28;20077;-78
2022/05/04 07:16:43;;;;;;;4.68;1.77;;;13.00;99.90;;;;;;5044838;28;20026;-78
2022/05/04 07:19:08;;;;;;;4.80;2.20;;;12.90;99.90;;;;;;5044403;28;20022;-78
2022/05/04 07:21:34;;;;;;;6.05;2.17;;;13.40;99.90;;;;;;5046187;28;20028;-78
2022/05/04 07:23:59;;;;;;;4.82;1.92;;;13.30;99.90;;;;;;5046196;28;20048;-78
2022/05/04 07:26:25;;;;;;;6.15;2.05;;;13.40;99.90;;;;;;5056794;28;20021;-78
2022/05/04 07:28:50;;;;;;;6.20;2.20;;;13.90;99.90;;;;;;5068871;28;20067;-78
2022/05/04 07:31:16;;;;;;;8.75;2.15;;;14.20;99.90;;;;;;5069082;28;20446;-78
2022/05/04 07:33:41;;;;;;;7.43;2.58;;;14.20;99.90;;;;;;5051335;28;20369;-78
2022/05/04 07:36:07;;;;;;;5.03;2.35;;;13.80;99.90;;;;;;5047808;28;20025;-78
2022/05/04 07:38:32;;;;;;;7.25;2.30;;;13.60;99.90;;;;;;5046608;28;20029;-78
2022/05/04 07:43:42;;;;;;;6.90;2.53;;;13.70;99.90;;;;;;5042676;28;20117;-78
2022/05/04 07:46:07;;;;;;;5.78;1.83;;;14.10;99.90;;;;;;5045089;28;20025;-78
2022/05/04 07:48:33;;;;;;;6.28;2.00;;;13.90;99.90;;;;;;5045752;28;20037;-78
2022/05/04 07:50:58;;;;;;;9.10;2.40;;;14.10;99.90;;;;;;5046581;28;20021;-78
2022/05/04 07:53:24;;;;;;;8.73;3.03;;;14.50;99.90;;;;;;5045329;28;20041;-78
2022/05/04 07:55:49;;;;;;;8.35;2.28;;;13.90;99.90;;;;;;5044678;28;20021;-78
2022/05/04 07:58:15;;;;;;;6.63;2.47;;;13.70;99.90;;;;;;5044142;28;20025;-78
2022/05/04 08:06:11;;;;;;;6.55;2.20;;;15.10;99.90;;;;;;5043392;28;20028;-78
2022/05/04 08:08:37;;;;;;;6.60;2.40;;;15.30;99.90;;;;;;5042551;28;20382;-78
2022/05/04 08:11:03;;;;;;;6.38;2.00;;;15.80;99.90;;;;;;5043414;28;20017;-78
2022/05/04 08:13:29;;;;;;;3.75;2.45;;;15.70;99.90;;;;;;5041374;28;20456;-78
2022/05/04 08:15:54;;;;;;;7.28;2.50;;;15.70;99.90;;;;;;5043015;28;20473;-78
2022/05/04 08:18:20;;;;;;;7.80;2.65;;;15.50;99.90;;;;;;5043289;28;20017;-78
2022/05/04 08:20:46;;;;;;;7.20;2.22;;;15.50;99.90;;;;;;5045119;28;20021;-78
2022/05/04 08:23:12;;;;;;;5.20;2.42;;;15.30;99.90;;;;;;5046291;28;20063;-78
2022/05/04 08:25:38;;;;;;;6.65;2.40;;;13.60;99.90;;;;;;5046903;28;20069;-78
2022/05/04 08:28:04;;;;;;;7.72;2.72;;;14.90;99.90;;;;;;5046616;28;20405;-78
2022/05/04 08:30:29;;;;;;;7.13;2.17;;;15.50;99.90;;;;;;5045417;28;20018;-78
2022/05/04 08:32:55;;;;;;;5.15;2.33;;;15.70;99.90;;;;;;5045760;28;20034;-79
2022/05/04 08:35:20;;;;;;;16.63;2.72;;;16.50;99.90;;;;;;5045559;28;20022;-78
2022/05/04 08:37:46;;;;;;;7.55;2.38;;;16.50;99.90;;;;;;5044579;28;20014;-78
2022/05/04 08:40:13;;;;;;;6.20;2.20;;;16.50;99.90;;;;;;5043698;28;20036;-79
2022/05/04 08:42:41;;;;;;;7.15;3.00;;;17.00;99.90;;;;;;5043072;28;20056;-79
2022/05/04 08:45:10;;;;;;;5.35;2.25;;;15.80;99.90;;;;;;5045591;28;20034;-78
2022/05/04 08:47:39;;;;;;;6.67;2.63;;;16.70;99.90;;;;;;5046354;28;20032;-78
2022/05/04 08:50:09;;;;;;;9.52;2.85;;;16.80;99.90;;;;;;5045954;28;20022;-78
2022/05/04 08:52:37;;;;;;;7.63;2.65;;;17.20;99.90;;;;;;5044568;28;20047;-78
2022/05/04 08:55:05;;;;;;;5.93;2.13;;;17.60;99.90;;;;;;5045469;28;20029;-79
2022/05/04 08:57:31;;;;;;;4.35;2.15;;;17.90;99.90;;;;;;5045409;28;20034;-78
2022/05/04 08:59:57;;;;;;;5.07;2.53;;;18.20;99.90;;;;;;5044259;28;20052;-78
2022/05/04 09:02:22;;;;;;;5.43;2.83;;;18.70;99.90;;;;;;5045894;28;20026;-79
2022/05/04 09:04:48;;;;;;;4.95;2.50;;;21.40;99.90;;;;;;5046778;28;20032;-79
2022/05/04 09:07:24;;;;;;;5.63;2.40;;;22.00;99.90;;;;;;5047151;28;20401;-79
2022/05/04 09:09:53;;;;;;;5.45;2.80;;;20.30;99.90;;;;;;5044333;28;20167;-78
2022/05/04 09:12:19;;;;;;;7.82;2.85;;;18.40;99.90;;;;;;5043829;28;20065;-78
2022/05/04 09:14:46;;;;;;;8.30;3.28;;;18.90;99.90;;;;;;5042885;28;20559;-78
2022/05/04 09:17:15;;;;;;;6.35;2.97;;;18.70;99.90;;;;;;5043270;28;20037;-78
2022/05/04 09:22:41;;;;;;;5.25;2.30;;;19.50;99.90;;;;;;5033354;28;20056;-78
2022/05/04 09:25:16;;;;;;;4.97;2.70;;;21.30;99.90;;;;;;5044222;28;20049;-79
2022/05/04 09:27:42;;;;;;;5.90;2.30;;;25.60;99.90;;;;;;5020247;28;20026;-79
2022/05/04 09:30:08;;;;;;;4.75;2.78;;;28.60;99.90;;;;;;5023743;28;20116;-79
2022/05/04 09:32:39;;;;;;;6.60;2.47;;;32.40;99.90;;;;;;5029442;28;20025;-79
2022/05/04 09:35:10;;;;;;;2.95;1.75;;;30.60;99.90;;;;;;5041606;28;20021;-79
2022/05/04 09:45:55;;;;;;;8.40;3.03;;;22.80;99.90;;;;;;5043416;28;20048;-78
2022/05/04 09:48:33;;;;;;;4.13;2.65;;;22.00;99.90;;;;;;5045203;28;20570;-79
2022/05/04 09:51:07;;;;;;;7.28;3.00;;;22.60;99.90;;;;;;5049298;28;20025;-78
2022/05/04 09:53:33;;;;;;;4.45;2.15;;;20.90;99.90;;;;;;5046923;28;20349;-78
2022/05/04 09:56:01;;;;;;;6.05;2.40;;;21.10;99.90;;;;;;5043892;28;20546;-78
2022/05/04 09:58:27;;;;;;;5.25;2.83;;;22.30;99.90;;;;;;5046337;28;20092;-78
2022/05/04 10:00:55;;;;;;;6.07;2.72;;;23.40;99.90;;;;;;5045885;28;20034;-78
2022/05/04 10:03:21;;;;;;;4.15;2.25;;;25.20;99.90;;;;;;5047002;28;20030;-79
2022/05/04 10:05:48;;;;;;;5.53;2.55;;;23.50;99.90;;;;;;5051672;28;20029;-79
2022/05/04 10:08:15;;;;;;;5.82;3.22;;;23.50;99.90;;;;;;5046815;28;20028;-79
2022/05/04 10:10:41;;;;;;;5.35;2.97;;;28.50;99.90;;;;;;5045228;28;20030;-79
2022/05/04 10:13:10;;;;;;;4.78;2.90;;;31.10;99.90;;;;;;5043493;28;20025;-79
2022/05/04 10:15:40;;;;;;;6.63;2.63;;;32.10;99.90;;;;;;5043519;28;20492;-78
2022/05/04 10:18:07;;;;;;;;;;;29.60;99.90;;;;;;5045651;28;20029;-79
2022/05/04 10:21:16;;;;;;;7.97;2.90;;;26.90;99.90;;;;;;5051398;28;19909;-79
2022/05/04 10:23:46;;;;;;;6.07;2.90;;;28.10;99.90;;;;;;5055127;28;20041;-79
2022/05/04 10:26:12;;;;;;;8.65;2.95;;;30.90;99.90;;;;;;5046819;28;20041;-79
2022/05/04 10:28:42;;;;;;;6.15;2.90;;;33.10;99.90;;;;;;5045105;28;20028;-79
2022/05/04 10:31:11;;;;;;;3.65;3.05;;;33.30;99.90;;;;;;5045587;28;20045;-78
2022/05/04 10:33:37;;;;;;;3.15;2.17;;;32.40;99.90;;;;;;5043457;28;20096;-79
2022/05/04 10:36:17;;;;;;;2.63;1.65;;;27.20;99.90;;;;;;5045856;28;20026;-79
2022/05/04 10:38:43;;;;;;;7.75;2.53;;;23.10;99.90;;;;;;5045186;28;20025;-79
2022/05/04 10:41:09;;;;;;;6.25;2.97;;;22.00;99.90;;;;;;5043846;28;20435;-79
2022/05/04 10:43:47;;;;;;;6.47;3.38;;;21.60;99.90;;;;;;5045480;28;20026;-79
2022/05/04 10:46:21;;;;;;;3.95;2.85;;;21.80;99.90;;;;;;5047372;28;20025;-79
2022/05/04 10:48:56;;;;;;;6.72;3.22;;;25.00;99.90;;;;;;5049008;28;20040;-78
2022/05/04 10:51:29;;;;;;;7.28;3.42;;;25.50;99.90;;;;;;5050117;28;20057;-78
2022/05/04 10:54:14;;;;;;;4.93;2.72;;;27.40;99.90;;;;;;5045810;28;20052;-79
2022/05/04 10:56:46;;;;;;;7.13;3.30;;;25.70;99.90;;;;;;5047449;28;20021;-78
2022/05/04 10:59:22;;;;;;;10.52;3.58;;;22.10;99.90;;;;;;5047160;28;20025;-78
2022/05/04 11:01:47;;;;;;;4.53;2.60;;;22.80;99.90;;;;;;5047157;28;20033;-78
2022/05/04 11:04:22;;;;;;;5.30;3.30;;;22.20;99.90;;;;;;5045796;28;20537;-78
2022/05/04 11:07:02;;;;;;;7.85;3.40;;;20.60;99.90;;;;;;5048904;28;20101;-78
2022/05/04 11:09:40;;;;;;;5.78;2.90;;;20.90;99.90;;;;;;5047220;28;20076;-78
2022/05/04 11:12:08;;;;;;;5.93;3.58;;;20.50;99.90;;;;;;5044641;28;20030;-78
2022/05/04 11:14:34;;;;;;;7.40;3.78;;;19.70;99.90;;;;;;5042635;28;20133;-78
2022/05/04 11:17:02;;;;;;;6.95;3.38;;;19.00;99.90;;;;;;5044205;28;20052;-78
2022/05/04 11:19:30;;;;;;;9.13;3.97;;;18.50;99.90;;;;;;5045546;28;20026;-77
2022/05/04 11:21:56;;;;;;;6.75;3.55;;;18.60;99.90;;;;;;5046921;28;20372;-78
2022/05/04 11:24:25;;;;;;;7.70;3.60;;;18.20;99.90;;;;;;5044935;28;20056;-78
2022/05/04 11:26:52;;;;;;;4.57;2.70;;;19.00;99.90;;;;;;5042696;28;20045;-78
2022/05/04 11:29:23;;;;;;;5.03;3.08;;;18.00;99.90;;;;;;5043166;28;20022;-78
2022/05/04 11:31:56;;;;;;;5.45;3.63;;;18.20;99.90;;;;;;5043062;28;20499;-78
2022/05/04 11:34:41;;;;;;;7.05;3.60;;;18.00;99.90;;;;;;5044467;28;20120;-78
2022/05/04 11:37:09;;;;;;;6.55;3.28;;;17.70;99.90;;;;;;5043383;28;20083;-78
2022/05/04 11:39:37;;;;;;;6.32;3.38;;;17.80;99.90;;;;;;5043224;28;20021;-79
2022/05/04 11:42:04;;;;;;;5.68;3.20;;;17.60;99.90;;;;;;5041546;28;20033;-78
2022/05/04 11:44:30;;;;;;;8.75;3.78;;;18.30;99.90;;;;;;5042423;28;20033;-78
2022/05/04 11:46:58;;;;;;;7.68;3.38;;;17.90;99.90;;;;;;5044742;28;20029;-78
2022/05/04 11:49:25;;;;;;;8.13;3.58;;;18.10;99.90;;;;;;5044904;28;20089;-78
2022/05/04 11:51:52;;;;;;;7.63;3.50;;;18.00;99.90;;;;;;5044955;28;20029;-78
2022/05/04 11:54:18;;;;;;;4.40;2.70;;;18.00;99.90;;;;;;5041976;28;20033;-78
2022/05/04 11:56:44;;;;;;;4.55;2.95;;;17.40;99.90;;;;;;5042059;28;20385;-78
2022/05/04 11:59:10;;;;;;;6.65;3.08;;;16.90;99.90;;;;;;5041757;28;20057;-78
2022/05/04 12:01:36;;;;;;;6.88;2.92;;;16.40;99.90;;;;;;5041061;28;20222;-78
2022/05/04 12:04:03;;;;;;;6.15;3.60;;;16.70;99.90;;;;;;5040777;28;20029;-77
2022/05/04 12:06:30;;;;;;;7.63;2.72;;;16.70;99.90;;;;;;5042276;28;20029;-78
2022/05/04 12:08:56;;;;;;;2.30;1.55;;;17.10;99.90;;;;;;5040792;28;20073;-78
2022/05/04 12:11:23;;;;;;;5.90;2.90;;;16.90;99.90;;;;;;5040917;28;20140;-78
2022/05/04 12:13:50;;;;;;;5.53;3.25;;;17.30;99.90;;;;;;5043467;28;20053;-78
2022/05/04 12:16:15;;;;;;;4.35;2.35;;;17.80;99.90;;;;;;5046093;28;20041;-78
2022/05/04 12:18:41;;;;;;;7.95;3.25;;;18.20;99.90;;;;;;5040067;28;20041;-78
2022/05/04 12:21:12;;;;;;;6.13;3.30;;;17.50;99.90;;;;;;5041883;28;20056;-77
2022/05/04 12:23:41;;;;;;;6.70;3.00;;;17.90;99.90;;;;;;5042116;28;20040;-77
2022/05/04 12:26:08;;;;;;;5.93;3.03;;;18.50;99.90;;;;;;5043732;28;20018;-78
2022/05/04 12:28:34;;;;;;;7.68;3.65;;;17.80;99.90;;;;;;5043098;28;20542;-78
2022/05/04 12:33:48;;;;;;;6.28;3.53;;;17.30;99.90;;;;;;5059751;28;20028;-78
2022/05/04 12:36:15;;;;;;;5.53;3.58;;;17.80;99.90;;;;;;5062575;28;20017;-78
2022/05/04 12:38:46;;;;;;;8.48;3.88;;;17.50;99.90;;;;;;5062347;28;20021;-79
2022/05/04 12:41:13;;;;;;;7.85;3.83;;;17.10;99.90;;;;;;5062271;28;20071;-78
2022/05/04 12:43:39;;;;;;;5.28;3.08;;;17.00;99.90;;;;;;5061671;28;20023;-78
2022/05/04 12:46:10;;;;;;;6.30;3.67;;;17.50;99.90;;;;;;5064729;28;20365;-78
2022/05/04 12:48:38;;;;;;;7.82;3.45;;;17.70;99.90;;;;;;5066417;28;20036;-78
2022/05/04 12:51:04;;;;;;;10.50;3.80;;;18.10;99.90;;;;;;5066708;28;20051;-78
2022/05/04 12:53:30;;;;;;;7.18;3.05;;;18.40;99.90;;;;;;5065193;28;20029;-78
2022/05/04 12:58:40;;;;;;;6.72;3.08;;;17.60;99.90;;;;;;5063093;28;20534;-78
2022/05/04 13:01:06;;;;;;;9.25;3.38;;;17.40;99.90;;;;;;5063518;28;20021;-78
2022/05/04 13:03:33;;;;;;;4.30;3.10;;;18.00;99.90;;;;;;5062863;28;20048;-78
2022/05/04 13:05:59;;;;;;;7.60;2.80;;;17.50;99.90;;;;;;5066948;28;20444;-78
2022/05/04 13:08:25;;;;;;;5.25;3.05;;;18.00;99.90;;;;;;5069296;28;20013;-77
2022/05/04 13:10:52;;;;;;;6.75;2.83;;;18.30;99.90;;;;;;5070690;28;20460;-78
2022/05/04 13:13:18;;;;;;;3.75;3.17;;;18.50;99.90;;;;;;5067140;28;20025;-78
2022/05/04 13:15:50;;;;;;;10.32;3.78;;;18.80;99.90;;;;;;5067165;28;20059;-78
2022/05/04 13:18:16;;;;;;;6.32;2.55;;;18.10;99.90;;;;;;5067622;28;20024;-78
2022/05/04 13:20:43;;;;;;;5.03;2.35;;;17.30;99.90;;;;;;5069920;28;20029;-78
2022/05/04 13:23:08;;;;;;;5.80;2.70;;;17.70;99.90;;;;;;5071916;28;20040;-78
2022/05/04 13:25:35;;;;;;;7.65;3.17;;;17.80;99.90;;;;;;5069948;28;20028;-78
2022/05/04 13:28:00;;;;;;;6.05;3.38;;;17.40;99.90;;;;;;5054298;28;20029;-78
2022/05/04 13:30:27;;;;;;;6.57;3.00;;;17.70;99.90;;;;;;5052004;28;20052;-78